createdAt,value
2023-08-21T00:00:40.104Z,2.72
2023-08-21T00:03:07.902Z,1.90
2023-08-21T00:05:34.699Z,2.47
2023-08-21T00:08:01.170Z,2.72
2023-08-21T00:10:27.793Z,3.15
2023-08-21T00:12:54.339Z,2.17
2023-08-21T00:15:20.878Z,2.40
2023-08-21T00:17:48.266Z,3.15
2023-08-21T00:20:14.807Z,2.42
2023-08-21T00:22:41.285Z,2.70
2023-08-21T00:25:08.139Z,2.67
2023-08-21T00:27:34.961Z,2.10
2023-08-21T00:30:02.014Z,3.65
2023-08-21T00:32:28.587Z,2.80
2023-08-21T00:34:55.145Z,2.65
2023-08-21T00:37:22.654Z,3.20
2023-08-21T00:39:49.030Z,2.08
2023-08-21T00:42:15.423Z,3.40
2023-08-21T00:44:41.855Z,3.83
2023-08-21T00:47:08.832Z,4.38
2023-08-21T00:49:35.391Z,1.95
2023-08-21T00:52:03.361Z,1.75
2023-08-21T00:54:30.937Z,5.15
2023-08-21T00:56:57.459Z,2.40
2023-08-21T00:59:24.190Z,3.13
2023-08-21T01:01:50.730Z,2.47
2023-08-21T01:04:17.356Z,3.15
2023-08-21T01:06:44.261Z,3.25
2023-08-21T01:09:37.283Z,2.45
2023-08-21T01:12:34.767Z,2.15
2023-08-21T01:15:04.803Z,2.97
2023-08-21T01:17:31.802Z,2.22
2023-08-21T01:19:59.759Z,2.90
2023-08-21T01:22:36.920Z,2.88
2023-08-21T01:25:06.462Z,3.47
2023-08-21T01:27:34.917Z,2.38
2023-08-21T01:30:03.939Z,3.03
2023-08-21T01:32:49.455Z,2.28
2023-08-21T01:35:16.457Z,3.30
2023-08-21T01:37:43.941Z,3.38
2023-08-21T01:40:10.839Z,2.65
2023-08-21T01:42:37.505Z,1.92
2023-08-21T01:45:05.275Z,2.88
2023-08-21T01:47:31.845Z,2.17
2023-08-21T01:49:58.315Z,3.05
2023-08-21T01:52:24.741Z,2.63
2023-08-21T01:54:51.814Z,2.95
2023-08-21T01:57:18.449Z,2.45
2023-08-21T01:59:44.971Z,2.13
2023-08-21T02:02:11.391Z,2.53
2023-08-21T02:04:37.835Z,2.33
2023-08-21T02:07:05.279Z,1.95
2023-08-21T02:09:31.687Z,1.85
2023-08-21T02:11:58.173Z,2.65
2023-08-21T02:14:24.777Z,2.85
2023-08-21T02:16:51.247Z,3.05
2023-08-21T02:19:17.664Z,3.13
2023-08-21T02:21:44.262Z,1.80
2023-08-21T02:24:10.716Z,2.78
2023-08-21T02:26:37.178Z,2.85
2023-08-21T02:29:05.304Z,2.25
2023-08-21T02:31:31.776Z,2.72
2023-08-21T02:33:58.190Z,1.73
2023-08-21T02:36:24.565Z,1.73
2023-08-21T02:38:51.048Z,2.38
2023-08-21T02:41:19.336Z,2.47
2023-08-21T02:43:45.828Z,3.00
2023-08-21T02:46:12.371Z,2.92
2023-08-21T02:48:38.932Z,2.40
2023-08-21T02:51:06.184Z,3.40
2023-08-21T02:53:32.686Z,2.22
2023-08-21T02:55:59.552Z,2.22
2023-08-21T02:58:25.986Z,3.72
2023-08-21T03:00:52.509Z,2.17
2023-08-21T03:03:19.419Z,3.38
2023-08-21T03:05:45.893Z,3.33
2023-08-21T03:08:12.403Z,3.45
2023-08-21T03:10:38.964Z,2.92
2023-08-21T03:13:06.298Z,2.28
2023-08-21T03:15:32.671Z,2.10
2023-08-21T03:17:59.220Z,2.15
2023-08-21T03:20:25.700Z,1.60
2023-08-21T03:22:52.146Z,3.30
2023-08-21T03:25:18.868Z,2.53
2023-08-21T03:27:50.115Z,2.92
2023-08-21T03:30:16.782Z,3.03
2023-08-21T03:32:43.401Z,2.22
2023-08-21T03:35:09.909Z,3.05
2023-08-21T03:37:36.817Z,3.38
2023-08-21T03:40:05.103Z,1.85
2023-08-21T03:42:31.679Z,2.22
2023-08-21T03:44:58.117Z,4.10
2023-08-21T03:47:24.613Z,2.13
2023-08-21T03:49:51.034Z,2.92
2023-08-21T03:52:17.467Z,2.25
2023-08-21T03:54:43.953Z,1.85
2023-08-21T03:57:10.426Z,2.53
2023-08-21T03:59:36.871Z,3.35
2023-08-21T04:02:03.335Z,1.73
2023-08-21T04:04:29.786Z,2.88
2023-08-21T04:06:56.251Z,2.33
2023-08-21T04:09:22.791Z,3.00
2023-08-21T04:11:49.246Z,3.13
2023-08-21T04:14:15.652Z,2.30
2023-08-21T04:16:42.234Z,3.45
2023-08-21T04:19:08.795Z,3.42
2023-08-21T04:21:35.946Z,3.13
2023-08-21T04:24:02.423Z,4.22
2023-08-21T04:26:28.799Z,2.05
2023-08-21T04:28:55.278Z,1.70
2023-08-21T04:31:21.811Z,3.65
2023-08-21T04:33:48.329Z,2.92
2023-08-21T04:36:18.475Z,2.63
2023-08-21T04:38:45.104Z,2.40
2023-08-21T04:41:11.885Z,3.78
2023-08-21T04:43:38.664Z,1.67
2023-08-21T04:46:06.637Z,2.53
2023-08-21T04:48:33.228Z,12.45
2023-08-21T04:50:59.934Z,2.92
2023-08-21T04:53:26.602Z,2.55
2023-08-21T04:55:53.070Z,4.47
2023-08-21T04:58:19.553Z,2.45
2023-08-21T05:00:47.054Z,2.78
2023-08-21T05:03:13.690Z,3.15
2023-08-21T05:05:40.347Z,4.82
2023-08-21T05:08:07.100Z,2.92
2023-08-21T05:10:33.819Z,3.70
2023-08-21T05:13:00.984Z,3.20
2023-08-21T05:15:27.593Z,2.08
2023-08-21T05:17:54.059Z,4.60
2023-08-21T05:20:20.647Z,1.90
2023-08-21T05:22:47.150Z,2.58
2023-08-21T05:25:13.613Z,3.20
2023-08-21T05:27:40.137Z,3.05
2023-08-21T05:30:07.292Z,2.40
2023-08-21T05:32:34.573Z,4.90
2023-08-21T05:35:01.364Z,2.17
2023-08-21T05:37:28.063Z,1.85
2023-08-21T05:39:54.736Z,3.38
2023-08-21T05:42:21.207Z,2.20
2023-08-21T05:44:47.621Z,3.38
2023-08-21T05:47:14.148Z,5.90
2023-08-21T05:49:40.765Z,2.60
2023-08-21T05:52:07.230Z,2.58
2023-08-21T05:54:34.343Z,3.25
2023-08-21T05:57:00.803Z,3.65
2023-08-21T05:59:31.117Z,2.15
2023-08-21T06:01:57.665Z,3.47
2023-08-21T06:04:24.597Z,4.78
2023-08-21T06:06:51.418Z,2.83
2023-08-21T06:09:18.501Z,2.25
2023-08-21T06:11:45.297Z,2.25
2023-08-21T06:14:11.676Z,3.40
2023-08-21T06:16:38.174Z,2.20
2023-08-21T06:19:05.565Z,4.63
2023-08-21T06:21:32.006Z,2.40
2023-08-21T06:23:58.486Z,1.27
2023-08-21T06:26:24.945Z,2.42
2023-08-21T06:28:52.564Z,2.10
2023-08-21T06:31:19.122Z,2.53
2023-08-21T06:33:45.692Z,2.67
2023-08-21T06:36:12.136Z,3.70
2023-08-21T06:38:38.533Z,2.03
2023-08-21T06:41:09.556Z,3.58
2023-08-21T06:43:38.254Z,2.40
2023-08-21T06:46:04.857Z,2.38
2023-08-21T06:48:32.506Z,2.55
2023-08-21T06:50:58.973Z,3.70
2023-08-21T06:53:25.572Z,2.97
2023-08-21T06:55:52.046Z,2.42
2023-08-21T06:58:18.428Z,3.35
2023-08-21T07:00:44.980Z,2.85
2023-08-21T07:03:11.567Z,2.88
2023-08-21T07:05:38.642Z,3.00
2023-08-21T07:08:06.870Z,2.67
2023-08-21T07:10:39.684Z,4.75
2023-08-21T07:13:06.303Z,2.88
2023-08-21T07:15:32.801Z,2.80
2023-08-21T07:17:59.277Z,2.58
2023-08-21T07:20:25.720Z,2.72
2023-08-21T07:22:52.230Z,2.97
2023-08-21T07:25:19.390Z,2.67
2023-08-21T07:27:46.783Z,3.05
2023-08-21T07:30:13.390Z,1.98
2023-08-21T07:32:40.316Z,4.03
2023-08-21T07:35:07.409Z,1.63
2023-08-21T07:37:34.142Z,1.25
2023-08-21T07:40:01.528Z,2.55
2023-08-21T07:42:27.974Z,5.28
2023-08-21T07:44:54.490Z,2.90
2023-08-21T07:47:21.000Z,3.70
2023-08-21T07:49:47.442Z,5.68
2023-08-21T07:52:13.944Z,3.08
2023-08-21T07:54:40.363Z,2.88
2023-08-21T07:57:06.835Z,4.50
2023-08-21T07:59:33.358Z,4.22
2023-08-21T08:02:01.601Z,4.15
2023-08-21T08:04:28.190Z,17.17
2023-08-21T08:06:54.846Z,7.07
2023-08-21T08:09:21.240Z,21.33
2023-08-21T08:11:47.768Z,21.95
2023-08-21T08:14:14.315Z,24.95
2023-08-21T08:16:40.778Z,30.42
2023-08-21T08:19:07.249Z,19.70
2023-08-21T08:21:34.618Z,33.13
2023-08-21T08:24:01.105Z,36.25
2023-08-21T08:26:27.594Z,39.17
2023-08-21T08:28:54.108Z,32.08
2023-08-21T08:31:21.686Z,30.80
2023-08-21T08:33:49.350Z,40.90
2023-08-21T08:36:15.888Z,32.30
2023-08-21T08:38:42.352Z,31.02
2023-08-21T08:41:15.657Z,32.55
2023-08-21T08:43:42.273Z,22.35
2023-08-21T08:46:09.782Z,23.65
2023-08-21T08:48:36.566Z,23.90
2023-08-21T08:51:05.894Z,24.20
2023-08-21T08:53:34.058Z,20.52
2023-08-21T08:56:01.389Z,19.17
2023-08-21T08:58:27.878Z,19.33
2023-08-21T09:00:54.432Z,19.58
2023-08-21T09:03:21.155Z,16.92
2023-08-21T09:05:49.413Z,19.55
2023-08-21T09:08:15.958Z,13.40
2023-08-21T09:10:43.768Z,11.52
2023-08-21T09:13:18.462Z,13.75
2023-08-21T09:15:49.923Z,11.13
2023-08-21T09:18:17.211Z,14.00
2023-08-21T09:20:44.434Z,13.73
2023-08-21T09:23:16.319Z,9.43
2023-08-21T09:25:48.931Z,8.68
2023-08-21T09:28:18.991Z,9.77
2023-08-21T09:30:52.779Z,9.45
2023-08-21T09:33:21.666Z,8.30
2023-08-21T09:35:49.179Z,7.43
2023-08-21T09:38:15.676Z,9.70
2023-08-21T09:40:43.059Z,9.63
2023-08-21T09:43:12.565Z,8.55
2023-08-21T09:45:39.622Z,8.93
2023-08-21T09:48:08.144Z,7.13
2023-08-21T09:50:36.197Z,6.63
2023-08-21T09:53:04.618Z,8.00
2023-08-21T09:55:33.491Z,7.63
2023-08-21T09:58:01.403Z,10.70
2023-08-21T10:00:30.586Z,6.22
2023-08-21T10:03:02.696Z,5.40
2023-08-21T10:05:30.246Z,5.25
2023-08-21T10:07:57.354Z,6.80
2023-08-21T10:10:23.937Z,6.43
2023-08-21T10:12:50.771Z,7.90
2023-08-21T10:15:17.552Z,4.00
2023-08-21T10:17:44.633Z,8.52
2023-08-21T10:20:11.465Z,5.85
2023-08-21T10:22:46.625Z,5.55
2023-08-21T10:25:23.327Z,6.55
2023-08-21T10:27:52.801Z,6.97
2023-08-21T10:30:26.937Z,5.10
2023-08-21T10:32:56.066Z,7.57
2023-08-21T10:35:25.394Z,5.78
2023-08-21T10:38:19.249Z,3.90
2023-08-21T10:41:05.855Z,4.65
2023-08-21T10:43:39.464Z,4.30
2023-08-21T10:46:06.916Z,5.05
2023-08-21T10:48:33.452Z,6.05
2023-08-21T10:51:04.613Z,19.10
2023-08-21T10:53:32.650Z,42.60
2023-08-21T10:56:02.344Z,50.67
2023-08-21T10:58:29.885Z,56.75
2023-08-21T11:01:02.338Z,53.22
2023-08-21T11:03:28.932Z,49.08
2023-08-21T11:06:06.835Z,40.95
2023-08-21T11:08:35.781Z,41.58
2023-08-21T11:11:07.068Z,41.05
2023-08-21T11:13:34.873Z,41.17
2023-08-21T11:16:07.551Z,33.90
2023-08-21T11:18:35.855Z,38.33
2023-08-21T11:21:11.116Z,48.67
2023-08-21T11:23:39.873Z,43.75
2023-08-21T11:26:20.142Z,39.88
2023-08-21T11:28:48.928Z,40.38
2023-08-21T11:31:15.461Z,38.20
2023-08-21T11:33:41.868Z,31.42
2023-08-21T11:36:08.700Z,25.88
2023-08-21T11:38:36.131Z,28.83
2023-08-21T11:41:03.837Z,27.38
2023-08-21T11:43:38.884Z,26.73
2023-08-21T11:46:07.766Z,21.15
2023-08-21T11:48:35.113Z,23.92
2023-08-21T11:51:02.300Z,17.48
2023-08-21T11:53:43.319Z,17.27
2023-08-21T11:56:11.632Z,17.48
2023-08-21T11:58:42.117Z,15.98
2023-08-21T12:03:41.475Z,16.92
2023-08-21T12:06:09.866Z,13.02
2023-08-21T12:08:36.520Z,9.95
2023-08-21T12:11:03.501Z,10.68
2023-08-21T12:13:32.666Z,11.15
2023-08-21T12:16:01.191Z,9.70
2023-08-21T12:18:27.776Z,8.25
2023-08-21T12:20:54.148Z,8.40
2023-08-21T12:23:20.572Z,5.80
2023-08-21T12:25:47.135Z,6.85
2023-08-21T12:28:13.691Z,7.95
2023-08-21T12:30:40.166Z,8.07
2023-08-21T12:33:20.892Z,6.32
2023-08-21T12:35:48.992Z,7.15
2023-08-21T12:38:15.489Z,6.85
2023-08-21T12:40:42.016Z,7.47
2023-08-21T12:43:08.449Z,7.93
2023-08-21T12:45:37.683Z,6.63
2023-08-21T12:48:06.058Z,4.85
2023-08-21T12:50:32.666Z,7.60
2023-08-21T12:52:59.116Z,6.55
2023-08-21T12:55:25.604Z,4.72
2023-08-21T12:57:52.014Z,4.68
2023-08-21T13:00:18.725Z,5.10
2023-08-21T13:02:45.297Z,7.70
2023-08-21T13:05:11.939Z,4.10
2023-08-21T13:07:38.685Z,4.07
2023-08-21T13:10:06.407Z,5.45
2023-08-21T13:12:32.848Z,5.65
2023-08-21T13:14:59.835Z,3.80
2023-08-21T13:17:26.584Z,6.80
2023-08-21T13:19:53.119Z,6.18
2023-08-21T13:22:19.568Z,3.92
2023-08-21T13:24:46.050Z,5.82
2023-08-21T13:27:12.599Z,4.60
2023-08-21T13:29:39.385Z,4.07
2023-08-21T13:32:06.342Z,3.15
2023-08-21T13:34:34.112Z,3.50
2023-08-21T13:37:01.137Z,4.50
2023-08-21T13:39:27.725Z,4.47
2023-08-21T13:41:54.158Z,4.90
2023-08-21T13:44:20.803Z,3.83
2023-08-21T13:46:47.527Z,4.40
2023-08-21T13:49:14.382Z,4.40
2023-08-21T13:51:40.984Z,5.05
2023-08-21T13:54:08.538Z,3.13
2023-08-21T13:56:36.156Z,2.28
2023-08-21T13:59:03.388Z,3.13
2023-08-21T14:01:29.845Z,2.42
2023-08-21T14:03:56.225Z,2.80
2023-08-21T14:06:22.774Z,3.03
2023-08-21T14:08:49.216Z,3.65
2023-08-21T14:11:15.724Z,3.22
2023-08-21T14:13:42.126Z,3.40
2023-08-21T14:16:08.578Z,4.30
2023-08-21T14:18:35.944Z,2.78
2023-08-21T14:21:02.640Z,3.83
2023-08-21T14:23:30.943Z,2.88
2023-08-21T14:25:59.383Z,2.83
2023-08-21T14:28:25.826Z,2.55
2023-08-21T14:30:53.360Z,4.07
2023-08-21T14:33:19.844Z,3.60
2023-08-21T14:35:46.537Z,3.22
2023-08-21T14:40:39.464Z,4.03
2023-08-21T14:43:06.144Z,2.33
2023-08-21T14:45:32.589Z,3.70
2023-08-21T14:47:59.119Z,9.93
2023-08-21T14:50:25.625Z,15.50
2023-08-21T14:52:52.099Z,12.13
2023-08-21T14:55:18.557Z,12.43
2023-08-21T14:57:45.029Z,9.40
2023-08-21T15:00:12.245Z,11.07
2023-08-21T15:02:39.258Z,9.48
2023-08-21T15:05:06.865Z,7.35
2023-08-21T15:07:33.434Z,8.68
2023-08-21T15:09:59.912Z,6.18
2023-08-21T15:12:26.316Z,4.78
2023-08-21T15:14:52.710Z,7.35
2023-08-21T15:17:20.199Z,6.20
2023-08-21T15:19:49.790Z,5.75
2023-08-21T15:22:16.299Z,5.90
2023-08-21T15:24:42.827Z,5.07
2023-08-21T15:27:09.265Z,7.68
2023-08-21T15:29:36.622Z,4.68
2023-08-21T15:32:03.165Z,5.32
2023-08-21T15:34:29.669Z,4.10
2023-08-21T15:36:57.942Z,5.07
2023-08-21T15:39:24.521Z,5.53
2023-08-21T15:41:51.005Z,2.90
2023-08-21T15:44:17.490Z,6.35
2023-08-21T15:46:43.907Z,6.40
2023-08-21T15:49:11.055Z,5.40
2023-08-21T15:51:37.530Z,3.55
2023-08-21T15:54:04.788Z,4.30
2023-08-21T15:56:31.239Z,4.32
2023-08-21T15:58:57.665Z,4.63
2023-08-21T16:01:24.207Z,3.67
2023-08-21T16:03:50.851Z,3.83
2023-08-21T16:06:17.380Z,3.83
2023-08-21T16:08:43.864Z,3.03
2023-08-21T16:11:10.457Z,5.15
2023-08-21T16:13:36.924Z,3.10
2023-08-21T16:16:03.715Z,3.22
2023-08-21T16:18:30.213Z,4.63
2023-08-21T16:20:56.729Z,3.38
2023-08-21T16:23:23.245Z,2.60
2023-08-21T16:25:49.645Z,3.28
2023-08-21T16:28:16.727Z,2.80
2023-08-21T16:30:43.986Z,4.90
2023-08-21T16:33:10.514Z,2.90
2023-08-21T16:35:37.002Z,4.70
2023-08-21T16:38:03.978Z,3.50
2023-08-21T16:40:30.939Z,2.70
2023-08-21T16:42:57.464Z,8.65
2023-08-21T16:45:24.130Z,2.42
2023-08-21T16:47:50.924Z,1.70
2023-08-21T16:50:18.992Z,2.60
2023-08-21T16:52:45.488Z,2.78
2023-08-21T16:55:11.997Z,2.95
2023-08-21T16:57:38.405Z,3.67
2023-08-21T17:00:11.131Z,3.95
2023-08-21T17:02:39.911Z,2.58
2023-08-21T17:05:07.110Z,3.55
2023-08-21T17:07:38.468Z,2.83
2023-08-21T17:10:10.454Z,2.88
2023-08-21T17:12:37.605Z,3.90
2023-08-21T17:15:06.181Z,2.25
2023-08-21T17:17:32.988Z,3.88
2023-08-21T17:19:59.640Z,2.47
2023-08-21T17:22:26.092Z,4.72
2023-08-21T17:24:57.900Z,2.38
2023-08-21T17:27:35.851Z,4.45
2023-08-21T17:30:02.382Z,2.97
2023-08-21T17:32:28.904Z,2.65
2023-08-21T17:34:55.334Z,4.00
2023-08-21T17:37:22.393Z,4.15
2023-08-21T17:39:48.961Z,3.13
2023-08-21T17:42:15.407Z,3.10
2023-08-21T17:44:42.530Z,7.22
2023-08-21T17:47:08.993Z,6.43
2023-08-21T17:49:36.291Z,3.83
2023-08-21T17:52:02.789Z,2.63
2023-08-21T17:54:29.206Z,5.53
2023-08-21T17:56:55.684Z,2.78
2023-08-21T17:59:22.130Z,7.78
2023-08-21T18:01:48.690Z,2.85
2023-08-21T18:04:15.250Z,3.95
2023-08-21T18:06:41.728Z,3.58
2023-08-21T18:09:08.214Z,4.80
2023-08-21T18:11:35.968Z,4.63
2023-08-21T18:14:03.299Z,5.10
2023-08-21T18:16:32.587Z,2.75
2023-08-21T18:18:59.441Z,3.35
2023-08-21T18:21:25.993Z,3.42
2023-08-21T18:23:52.505Z,3.40
2023-08-21T18:26:19.151Z,3.15
2023-08-21T18:28:45.614Z,3.25
2023-08-21T18:31:12.149Z,5.32
2023-08-21T18:33:38.643Z,3.38
2023-08-21T18:36:06.164Z,4.50
2023-08-21T18:38:32.585Z,3.35
2023-08-21T18:40:59.095Z,2.50
2023-08-21T18:43:25.617Z,3.65
2023-08-21T18:45:56.713Z,2.28
2023-08-21T18:50:49.604Z,4.63
2023-08-21T18:53:16.993Z,3.17
2023-08-21T18:55:46.154Z,4.07
2023-08-21T18:58:12.737Z,4.00
2023-08-21T19:00:39.622Z,6.43
2023-08-21T19:03:07.133Z,3.88
2023-08-21T19:05:33.943Z,2.88
2023-08-21T19:08:00.848Z,4.50
2023-08-21T19:10:27.611Z,4.05
2023-08-21T19:12:57.050Z,2.70
2023-08-21T19:15:24.172Z,4.10
2023-08-21T19:17:50.665Z,3.42
2023-08-21T19:20:17.154Z,2.05
2023-08-21T19:22:43.604Z,3.08
2023-08-21T19:25:13.065Z,1.90
2023-08-21T19:27:40.102Z,3.17
2023-08-21T19:30:07.589Z,4.05
2023-08-21T19:32:34.772Z,2.95
2023-08-21T19:35:01.283Z,2.15
2023-08-21T19:37:27.787Z,2.35
2023-08-21T19:39:54.361Z,2.28
2023-08-21T19:42:20.987Z,3.22
2023-08-21T19:44:47.411Z,2.60
2023-08-21T19:47:13.971Z,4.07
2023-08-21T19:49:40.612Z,4.15
2023-08-21T19:52:07.221Z,3.90
2023-08-21T19:54:34.150Z,2.50
2023-08-21T19:57:01.010Z,3.65
2023-08-21T19:59:27.495Z,3.13
2023-08-21T20:01:53.888Z,2.08
2023-08-21T20:04:20.441Z,2.40
2023-08-21T20:06:46.922Z,6.20
2023-08-21T20:09:13.968Z,3.95
2023-08-21T20:11:41.203Z,3.75
2023-08-21T20:14:07.851Z,3.53
2023-08-21T20:16:35.252Z,1.88
2023-08-21T20:19:01.825Z,3.67
2023-08-21T20:21:30.083Z,2.83
2023-08-21T20:23:58.207Z,15.82
2023-08-21T20:26:25.717Z,2.53
2023-08-21T20:28:52.213Z,2.95
2023-08-21T20:31:18.837Z,2.10
2023-08-21T20:33:45.389Z,3.05
2023-08-21T20:36:11.836Z,1.85
2023-08-21T20:38:38.278Z,4.07
2023-08-21T20:41:06.263Z,2.63
2023-08-21T20:43:35.009Z,2.95
2023-08-21T20:46:06.011Z,3.63
2023-08-21T20:48:35.973Z,3.72
2023-08-21T20:51:04.186Z,3.35
2023-08-21T20:53:31.059Z,3.83
2023-08-21T20:56:01.192Z,2.97
2023-08-21T20:58:27.731Z,3.10
2023-08-21T21:00:54.202Z,3.20
2023-08-21T21:03:20.707Z,3.15
2023-08-21T21:05:47.286Z,2.55
2023-08-21T21:08:13.742Z,2.70
2023-08-21T21:10:40.220Z,2.75
2023-08-21T21:13:06.735Z,3.80
2023-08-21T21:15:33.193Z,2.85
2023-08-21T21:17:59.835Z,1.95
2023-08-21T21:20:26.467Z,2.22
2023-08-21T21:22:52.993Z,4.80
2023-08-21T21:25:19.477Z,4.28
2023-08-21T21:27:45.952Z,4.88
2023-08-21T21:30:12.552Z,2.55
2023-08-21T21:32:39.043Z,5.75
2023-08-21T21:35:06.216Z,6.32
2023-08-21T21:37:34.548Z,2.58
2023-08-21T21:40:04.731Z,2.63
2023-08-21T21:42:32.076Z,3.00
2023-08-21T21:44:58.617Z,3.13
2023-08-21T21:47:25.097Z,8.73
2023-08-21T21:49:51.504Z,3.95
2023-08-21T21:52:18.112Z,3.40
2023-08-21T21:54:44.564Z,3.17
2023-08-21T21:57:10.998Z,2.53
2023-08-21T21:59:37.771Z,3.95
2023-08-21T22:02:04.669Z,2.03
2023-08-21T22:04:31.393Z,4.32
2023-08-21T22:06:57.797Z,2.00
2023-08-21T22:09:24.226Z,2.20
2023-08-21T22:11:50.702Z,3.17
2023-08-21T22:14:18.101Z,2.55
2023-08-21T22:16:44.562Z,2.67
2023-08-21T22:19:11.560Z,3.20
2023-08-21T22:21:38.033Z,2.45
2023-08-21T22:24:05.719Z,2.58
2023-08-21T22:26:32.253Z,2.85
2023-08-21T22:28:58.711Z,3.08
2023-08-21T22:31:36.132Z,3.50
2023-08-21T22:34:07.924Z,3.65
2023-08-21T22:36:34.454Z,2.63
2023-08-21T22:39:00.848Z,3.08
2023-08-21T22:41:27.249Z,3.58
2023-08-21T22:43:53.633Z,3.33
2023-08-21T22:46:20.079Z,2.22
2023-08-21T22:48:46.571Z,4.40
2023-08-21T22:51:13.086Z,2.60
2023-08-21T22:53:39.641Z,3.67
2023-08-21T22:56:06.160Z,4.32
2023-08-21T22:58:32.664Z,2.50
2023-08-21T23:00:59.501Z,2.55
2023-08-21T23:03:27.018Z,2.38
2023-08-21T23:05:54.942Z,3.17
2023-08-21T23:08:24.432Z,2.13
2023-08-21T23:10:51.006Z,2.78
2023-08-21T23:13:17.599Z,3.53
2023-08-21T23:15:48.474Z,2.85
2023-08-21T23:18:15.093Z,3.35
2023-08-21T23:20:41.815Z,3.45
2023-08-21T23:23:08.935Z,3.22
2023-08-21T23:25:36.635Z,2.67
2023-08-21T23:28:04.355Z,4.60
2023-08-21T23:30:31.168Z,2.42
2023-08-21T23:32:57.614Z,2.95
2023-08-21T23:35:24.105Z,4.03
2023-08-21T23:37:50.590Z,2.17
2023-08-21T23:40:17.639Z,2.70
2023-08-21T23:42:44.595Z,3.10
2023-08-21T23:45:11.948Z,2.42
2023-08-21T23:47:39.187Z,3.95
2023-08-21T23:50:06.686Z,2.55
2023-08-21T23:52:33.141Z,2.05
2023-08-21T23:54:59.617Z,2.80
2023-08-21T23:57:27.560Z,3.67
2023-08-21T23:59:54.142Z,3.22
